createdAt,value
2023-01-27T00:01:22.501Z,38.70
2023-01-27T00:03:50.569Z,37.42
2023-01-27T00:06:17.537Z,36.85
2023-01-27T00:08:44.517Z,40.22
2023-01-27T00:11:11.533Z,36.05
2023-01-27T00:13:38.552Z,33.35
2023-01-27T00:16:05.978Z,31.48
2023-01-27T00:18:32.999Z,34.80
2023-01-27T00:21:00.011Z,34.35
2023-01-27T00:23:27.842Z,42.20
2023-01-27T00:25:54.875Z,42.00
2023-01-27T00:28:21.953Z,38.13
2023-01-27T00:30:54.865Z,42.00
2023-01-27T00:33:22.010Z,42.45
2023-01-27T00:35:49.003Z,37.95
2023-01-27T00:38:17.197Z,30.08
2023-01-27T00:40:44.182Z,46.55
2023-01-27T00:43:11.195Z,37.65
2023-01-27T00:45:38.165Z,34.88
2023-01-27T00:48:06.316Z,39.50
2023-01-27T00:50:33.358Z,37.22
2023-01-27T00:53:00.422Z,39.38
2023-01-27T00:55:27.434Z,41.17
2023-01-27T00:57:54.460Z,38.95
2023-01-27T01:00:21.549Z,31.60
2023-01-27T01:02:48.669Z,37.30
2023-01-27T01:05:15.798Z,31.05
2023-01-27T01:07:42.842Z,33.03
2023-01-27T01:10:10.729Z,32.22
2023-01-27T01:12:37.936Z,34.95
2023-01-27T01:15:05.481Z,33.50
2023-01-27T01:17:32.474Z,36.42
2023-01-27T01:19:59.687Z,31.33
2023-01-27T01:22:26.691Z,34.17
2023-01-27T01:24:53.684Z,34.25
2023-01-27T01:27:20.672Z,37.13
2023-01-27T01:29:47.689Z,38.83
2023-01-27T01:32:14.667Z,43.85
2023-01-27T01:34:41.673Z,31.23
2023-01-27T01:37:08.662Z,38.95
2023-01-27T01:39:35.663Z,40.72
2023-01-27T01:42:02.726Z,35.58
2023-01-27T01:44:31.656Z,41.65
2023-01-27T01:47:00.185Z,43.50
2023-01-27T01:49:33.125Z,39.50
2023-01-27T01:52:05.339Z,37.67
2023-01-27T01:54:39.773Z,42.60
2023-01-27T01:57:17.630Z,39.58
2023-01-27T02:00:12.972Z,41.75
2023-01-27T02:02:48.343Z,40.00
2023-01-27T02:05:29.367Z,39.00
2023-01-27T02:08:05.292Z,45.75
2023-01-27T02:10:33.631Z,37.20
2023-01-27T02:13:00.695Z,41.53
2023-01-27T02:15:30.649Z,35.40
2023-01-27T02:17:59.787Z,33.53
2023-01-27T02:20:38.892Z,38.70
2023-01-27T02:23:39.473Z,34.60
2023-01-27T02:26:13.429Z,44.95
2023-01-27T02:28:40.479Z,43.65
2023-01-27T02:31:07.807Z,45.58
2023-01-27T02:33:35.105Z,41.45
2023-01-27T02:36:14.562Z,36.70
2023-01-27T02:38:48.835Z,42.58
2023-01-27T02:41:19.106Z,41.20
2023-01-27T02:43:48.071Z,36.42
2023-01-27T02:46:15.901Z,30.30
2023-01-27T02:48:43.142Z,40.63
2023-01-27T02:51:10.825Z,39.88
2023-01-27T02:56:09.064Z,39.15
2023-01-27T02:58:36.390Z,38.58
2023-01-27T03:01:14.543Z,40.50
2023-01-27T03:03:41.603Z,23.85
2023-01-27T03:06:08.610Z,31.92
2023-01-27T03:08:35.700Z,19.98
2023-01-27T03:11:05.907Z,12.25
2023-01-27T03:13:33.428Z,9.13
2023-01-27T03:16:01.326Z,9.40
2023-01-27T03:18:28.347Z,11.05
2023-01-27T03:21:04.797Z,8.07
2023-01-27T03:23:32.779Z,9.77
2023-01-27T03:26:00.753Z,9.95
2023-01-27T03:28:27.880Z,9.30
2023-01-27T03:31:07.235Z,8.27
2023-01-27T03:33:45.928Z,8.85
2023-01-27T03:36:34.384Z,9.82
2023-01-27T03:39:01.410Z,10.23
2023-01-27T03:41:28.946Z,7.40
2023-01-27T03:43:55.950Z,7.80
2023-01-27T03:46:23.683Z,7.03
2023-01-27T03:48:53.696Z,5.75
2023-01-27T03:51:23.555Z,6.38
2023-01-27T03:53:51.296Z,7.10
2023-01-27T03:56:20.081Z,4.40
2023-01-27T03:58:49.157Z,6.50
2023-01-27T04:01:22.223Z,6.65
2023-01-27T04:03:50.545Z,10.07
2023-01-27T04:06:22.175Z,7.18
2023-01-27T04:08:49.243Z,6.90
2023-01-27T04:11:16.622Z,9.07
2023-01-27T04:13:43.648Z,8.32
2023-01-27T04:16:10.658Z,6.25
2023-01-27T04:18:37.632Z,7.65
2023-01-27T04:21:04.785Z,7.32
2023-01-27T04:23:31.812Z,7.30
2023-01-27T04:25:58.824Z,6.22
2023-01-27T04:28:43.207Z,6.43
2023-01-27T04:31:11.368Z,5.22
2023-01-27T04:33:38.528Z,6.97
2023-01-27T04:36:05.816Z,7.32
2023-01-27T04:38:33.040Z,5.53
2023-01-27T04:41:00.528Z,7.80
2023-01-27T04:43:27.528Z,8.60
2023-01-27T04:45:54.691Z,8.07
2023-01-27T04:48:21.854Z,8.50
2023-01-27T04:50:49.037Z,8.00
2023-01-27T04:53:16.052Z,8.32
2023-01-27T04:55:49.048Z,6.53
2023-01-27T04:58:17.006Z,5.93
2023-01-27T05:00:45.106Z,7.68
2023-01-27T05:03:12.363Z,5.93
2023-01-27T05:05:39.457Z,12.00
2023-01-27T05:08:08.402Z,13.63
2023-01-27T05:10:36.082Z,6.97
2023-01-27T05:13:03.291Z,7.20
2023-01-27T05:15:30.929Z,7.50
2023-01-27T05:17:58.039Z,11.60
2023-01-27T05:20:25.105Z,7.00
2023-01-27T05:22:52.113Z,6.30
2023-01-27T05:25:19.089Z,8.48
2023-01-27T05:27:46.269Z,12.00
2023-01-27T05:30:13.750Z,10.52
2023-01-27T05:32:40.783Z,11.70
2023-01-27T05:35:08.118Z,11.20
2023-01-27T05:37:35.145Z,14.00
2023-01-27T05:40:02.120Z,11.55
2023-01-27T05:42:29.160Z,12.05
2023-01-27T05:44:56.165Z,9.10
2023-01-27T05:47:23.132Z,7.38
2023-01-27T05:49:50.149Z,7.13
2023-01-27T05:52:17.239Z,7.68
2023-01-27T05:54:44.659Z,6.25
2023-01-27T05:57:11.691Z,7.95
2023-01-27T05:59:38.765Z,7.70
2023-01-27T06:02:05.794Z,8.43
2023-01-27T06:04:32.940Z,5.57
2023-01-27T06:07:00.000Z,7.95
2023-01-27T06:09:26.997Z,8.45
2023-01-27T06:11:54.000Z,7.72
2023-01-27T06:14:20.963Z,7.85
2023-01-27T06:16:48.035Z,6.20
2023-01-27T06:19:15.132Z,6.57
2023-01-27T06:21:42.210Z,12.10
2023-01-27T06:24:12.601Z,7.72
2023-01-27T06:26:40.399Z,9.05
2023-01-27T06:29:07.393Z,9.52
2023-01-27T06:31:34.420Z,8.80
2023-01-27T06:34:01.777Z,9.68
2023-01-27T06:36:28.930Z,7.78
2023-01-27T06:38:55.923Z,12.82
2023-01-27T06:41:22.910Z,10.50
2023-01-27T06:43:49.920Z,7.65
2023-01-27T06:46:16.982Z,11.55
2023-01-27T06:48:44.031Z,8.18
2023-01-27T06:51:11.120Z,10.45
2023-01-27T06:53:38.150Z,11.18
2023-01-27T06:56:05.568Z,9.20
2023-01-27T06:58:33.349Z,10.68
2023-01-27T07:01:00.443Z,9.18
2023-01-27T07:03:27.566Z,11.82
2023-01-27T07:05:54.649Z,11.48
2023-01-27T07:08:21.733Z,12.23
2023-01-27T07:10:48.693Z,10.05
2023-01-27T07:13:15.709Z,9.20
2023-01-27T07:15:42.898Z,10.50
2023-01-27T07:18:11.939Z,8.93
2023-01-27T07:20:40.214Z,10.35
2023-01-27T07:23:07.360Z,8.90
2023-01-27T07:25:35.059Z,9.23
2023-01-27T07:28:03.155Z,10.07
2023-01-27T07:30:31.004Z,11.73
2023-01-27T07:33:09.510Z,9.07
2023-01-27T07:35:38.034Z,12.60
2023-01-27T07:38:06.291Z,8.43
2023-01-27T07:40:33.387Z,8.57
2023-01-27T07:43:01.337Z,9.80
2023-01-27T07:45:29.599Z,7.20
2023-01-27T07:48:07.375Z,8.80
2023-01-27T07:50:35.357Z,10.90
2023-01-27T07:53:04.655Z,10.75
2023-01-27T07:55:32.443Z,11.90
2023-01-27T07:57:59.777Z,11.75
2023-01-27T08:00:27.573Z,9.20
2023-01-27T08:02:56.360Z,10.55
2023-01-27T08:05:23.703Z,6.22
2023-01-27T08:07:51.943Z,6.15
2023-01-27T08:10:19.018Z,5.40
2023-01-27T08:12:46.219Z,7.00
2023-01-27T08:15:13.581Z,7.95
2023-01-27T08:17:40.590Z,8.23
2023-01-27T08:20:08.479Z,7.18
2023-01-27T08:22:35.455Z,5.82
2023-01-27T08:25:02.563Z,5.95
2023-01-27T08:27:29.780Z,7.72
2023-01-27T08:29:56.772Z,6.18
2023-01-27T08:32:23.808Z,6.57
2023-01-27T08:34:50.795Z,5.20
2023-01-27T08:37:17.798Z,4.82
2023-01-27T08:39:44.816Z,3.42
2023-01-27T08:42:12.520Z,4.47
2023-01-27T08:44:39.521Z,4.40
2023-01-27T08:47:06.542Z,6.65
2023-01-27T08:49:33.603Z,5.18
2023-01-27T08:52:00.603Z,3.95
2023-01-27T08:54:27.652Z,3.28
2023-01-27T08:56:54.670Z,4.80
2023-01-27T08:59:21.629Z,4.03
2023-01-27T09:01:48.721Z,5.03
2023-01-27T09:04:15.801Z,3.85
2023-01-27T09:06:42.839Z,2.95
2023-01-27T09:09:11.711Z,3.35
2023-01-27T09:11:44.625Z,2.63
2023-01-27T09:14:12.049Z,3.85
2023-01-27T09:16:39.393Z,3.55
2023-01-27T09:19:06.398Z,3.08
2023-01-27T09:21:33.380Z,2.35
2023-01-27T09:24:00.419Z,3.10
2023-01-27T09:26:27.476Z,3.28
2023-01-27T09:28:54.552Z,3.03
2023-01-27T09:31:21.583Z,3.47
2023-01-27T09:33:48.591Z,3.78
2023-01-27T09:36:20.071Z,2.22
2023-01-27T09:38:59.051Z,8.73
2023-01-27T09:41:58.462Z,4.35
2023-01-27T09:44:45.826Z,7.30
2023-01-27T09:47:23.781Z,5.75
2023-01-27T09:49:59.946Z,4.82
2023-01-27T09:52:49.342Z,3.00
2023-01-27T09:55:30.862Z,14.45
2023-01-27T09:58:00.806Z,18.25
2023-01-27T10:00:47.551Z,9.25
2023-01-27T10:03:32.940Z,1.25
2023-01-27T10:06:25.463Z,8.73
2023-01-27T10:09:10.400Z,19.92
2023-01-27T10:11:58.738Z,6.72
2023-01-27T10:14:51.719Z,7.50
2023-01-27T10:17:24.825Z,5.38
2023-01-27T10:20:13.436Z,3.05
2023-01-27T10:22:59.812Z,3.35
2023-01-27T10:25:46.882Z,3.13
2023-01-27T10:28:17.016Z,4.57
2023-01-27T10:30:58.957Z,9.75
2023-01-27T10:36:18.714Z,9.88
2023-01-27T10:38:54.495Z,5.40
2023-01-27T10:41:43.579Z,3.47
2023-01-27T10:44:33.408Z,2.08
2023-01-27T10:47:00.419Z,2.05
2023-01-27T10:49:56.930Z,2.42
2023-01-27T10:52:45.632Z,3.13
2023-01-27T10:55:53.194Z,2.75
2023-01-27T10:58:31.608Z,3.13
2023-01-27T11:01:29.550Z,3.28
2023-01-27T11:03:54.498Z,2.38
2023-01-27T11:06:24.943Z,1.77
2023-01-27T11:08:59.041Z,4.80
2023-01-27T11:11:27.285Z,3.75
2023-01-27T11:14:16.744Z,1.92
2023-01-27T11:16:48.560Z,2.25
2023-01-27T11:19:30.988Z,1.50
2023-01-27T11:22:07.639Z,2.10
2023-01-27T11:25:04.887Z,1.77
2023-01-27T11:28:02.715Z,1.85
2023-01-27T11:30:40.096Z,1.83
2023-01-27T11:33:09.824Z,1.67
2023-01-27T11:35:37.367Z,1.85
2023-01-27T11:38:15.049Z,2.20
2023-01-27T11:40:44.628Z,2.00
2023-01-27T11:43:17.112Z,0.90
2023-01-27T11:45:45.094Z,3.15
2023-01-27T11:48:17.500Z,1.40
2023-01-27T11:50:45.284Z,0.63
2023-01-27T11:53:37.239Z,1.27
2023-01-27T11:56:10.154Z,1.45
2023-01-27T11:58:47.212Z,2.65
2023-01-27T12:01:19.163Z,1.98
2023-01-27T12:03:50.922Z,3.33
2023-01-27T12:08:50.430Z,2.88
2023-01-27T12:11:19.161Z,5.43
2023-01-27T12:14:00.993Z,1.65
2023-01-27T12:16:44.516Z,2.13
2023-01-27T12:19:29.307Z,2.20
2023-01-27T12:22:00.031Z,1.25
2023-01-27T12:24:36.033Z,3.95
2023-01-27T12:27:05.294Z,1.77
2023-01-27T12:29:43.643Z,2.78
2023-01-27T12:32:18.150Z,2.35
2023-01-27T12:34:49.976Z,1.88
2023-01-27T12:40:00.914Z,1.90
2023-01-27T12:42:47.979Z,2.15
2023-01-27T12:45:25.548Z,4.15
2023-01-27T12:47:58.445Z,5.82
2023-01-27T12:50:30.129Z,4.25
2023-01-27T12:53:10.176Z,4.75
2023-01-27T12:56:02.307Z,2.88
2023-01-27T13:00:56.675Z,6.18
2023-01-27T13:03:24.211Z,4.07
2023-01-27T13:05:57.581Z,3.28
2023-01-27T13:08:28.135Z,6.55
2023-01-27T13:10:58.013Z,8.43
2023-01-27T13:13:27.657Z,1.48
2023-01-27T13:16:02.934Z,3.22
2023-01-27T13:18:35.116Z,7.65
2023-01-27T13:21:16.420Z,4.75
2023-01-27T13:23:45.686Z,2.35
2023-01-27T13:26:19.833Z,3.35
2023-01-27T13:28:55.574Z,2.83
2023-01-27T13:31:53.418Z,2.20
2023-01-27T13:34:41.028Z,2.55
2023-01-27T13:37:08.034Z,1.95
2023-01-27T13:39:54.905Z,1.52
2023-01-27T13:43:10.032Z,1.27
2023-01-27T13:45:53.028Z,1.10
2023-01-27T13:48:42.210Z,1.00
2023-01-27T13:51:30.222Z,2.78
2023-01-27T13:54:00.166Z,1.88
2023-01-27T13:56:45.806Z,0.88
2023-01-27T13:59:26.124Z,1.13
2023-01-27T14:02:15.165Z,1.85
2023-01-27T14:05:00.292Z,1.30
2023-01-27T14:07:47.349Z,2.13
2023-01-27T14:10:20.343Z,2.45
2023-01-27T14:12:55.129Z,1.30
2023-01-27T14:15:31.964Z,1.52
2023-01-27T14:18:02.244Z,1.98
2023-01-27T14:20:29.257Z,2.10
2023-01-27T14:22:59.369Z,1.20
2023-01-27T14:25:35.452Z,0.75
2023-01-27T14:28:16.130Z,1.10
2023-01-27T14:30:48.730Z,1.67
2023-01-27T14:33:44.164Z,1.23
2023-01-27T14:36:20.745Z,0.95
2023-01-27T14:38:48.395Z,1.15
2023-01-27T14:41:45.861Z,1.45
2023-01-27T14:45:05.111Z,3.50
2023-01-27T14:47:38.025Z,1.85
2023-01-27T14:50:40.095Z,1.63
2023-01-27T14:53:16.335Z,2.25
2023-01-27T14:55:55.451Z,1.30
2023-01-27T14:58:35.773Z,2.22
2023-01-27T15:01:08.541Z,1.52
2023-01-27T15:03:54.004Z,1.38
2023-01-27T15:06:46.443Z,1.30
2023-01-27T15:09:23.427Z,1.65
2023-01-27T15:12:05.923Z,1.85
2023-01-27T15:15:00.744Z,1.75
2023-01-27T15:17:33.819Z,1.60
2023-01-27T15:20:30.072Z,2.50
2023-01-27T15:23:34.982Z,2.13
2023-01-27T15:26:06.581Z,2.25
2023-01-27T15:28:38.298Z,1.50
2023-01-27T15:31:22.528Z,2.22
2023-01-27T15:34:04.830Z,1.77
2023-01-27T15:36:33.600Z,2.05
2023-01-27T15:39:09.987Z,3.20
2023-01-27T15:41:51.902Z,1.38
2023-01-27T15:44:25.104Z,2.40
2023-01-27T15:47:03.262Z,1.63
2023-01-27T15:49:48.814Z,2.90
2023-01-27T15:52:18.897Z,1.27
2023-01-27T15:54:49.476Z,2.78
2023-01-27T15:57:39.087Z,3.25
2023-01-27T16:00:28.111Z,3.17
2023-01-27T16:03:00.298Z,4.00
2023-01-27T16:05:34.809Z,3.33
2023-01-27T16:08:10.196Z,3.30
2023-01-27T16:10:37.711Z,2.33
2023-01-27T16:13:24.746Z,2.17
2023-01-27T16:16:29.469Z,2.53
2023-01-27T16:19:16.305Z,3.20
2023-01-27T16:22:00.794Z,1.90
2023-01-27T16:24:43.310Z,1.85
2023-01-27T16:27:30.855Z,2.55
2023-01-27T16:29:59.261Z,2.42
2023-01-27T16:32:36.275Z,2.05
2023-01-27T16:35:06.915Z,3.30
2023-01-27T16:37:37.718Z,1.58
2023-01-27T16:40:14.850Z,1.25
2023-01-27T16:43:00.997Z,1.77
2023-01-27T16:45:45.044Z,4.68
2023-01-27T16:48:27.084Z,2.83
2023-01-27T16:51:05.749Z,3.17
2023-01-27T16:53:32.971Z,2.85
2023-01-27T16:56:07.079Z,4.03
2023-01-27T16:58:45.841Z,2.40
2023-01-27T17:01:22.660Z,2.55
2023-01-27T17:03:51.795Z,2.63
2023-01-27T17:06:19.321Z,4.65
2023-01-27T17:08:48.816Z,4.28
2023-01-27T17:11:18.484Z,9.88
2023-01-27T17:13:48.434Z,10.45
2023-01-27T17:16:29.151Z,8.60
2023-01-27T17:19:04.917Z,3.78
2023-01-27T17:21:37.145Z,4.90
2023-01-27T17:24:14.572Z,7.57
2023-01-27T17:26:46.137Z,15.48
2023-01-27T17:29:22.480Z,7.07
2023-01-27T17:31:50.700Z,2.22
2023-01-27T17:34:20.773Z,2.30
2023-01-27T17:37:07.102Z,2.13
2023-01-27T17:39:34.230Z,2.08
2023-01-27T17:42:01.350Z,2.53
2023-01-27T17:44:28.405Z,3.53
2023-01-27T17:46:55.542Z,2.75
2023-01-27T17:49:22.612Z,2.58
2023-01-27T17:51:52.111Z,2.60
2023-01-27T17:54:24.884Z,2.05
2023-01-27T17:57:03.368Z,2.38
2023-01-27T17:59:30.571Z,5.05
2023-01-27T18:02:05.992Z,2.58
2023-01-27T18:04:39.903Z,2.08
2023-01-27T18:07:07.365Z,2.22
2023-01-27T18:09:34.903Z,2.72
2023-01-27T18:12:05.172Z,5.95
2023-01-27T18:14:35.034Z,2.83
2023-01-27T18:17:22.344Z,2.72
2023-01-27T18:19:51.120Z,4.40
2023-01-27T18:22:20.258Z,2.40
2023-01-27T18:24:49.159Z,3.65
2023-01-27T18:27:29.026Z,11.93
2023-01-27T18:30:01.381Z,7.22
2023-01-27T18:32:37.439Z,3.33
2023-01-27T18:35:22.108Z,4.75
2023-01-27T18:38:05.322Z,4.53
2023-01-27T18:40:34.940Z,5.43
2023-01-27T18:43:05.883Z,2.75
2023-01-27T18:45:33.199Z,3.63
2023-01-27T18:48:00.635Z,2.78
2023-01-27T18:50:28.732Z,4.03
2023-01-27T18:52:57.523Z,2.92
2023-01-27T18:55:27.248Z,3.08
2023-01-27T18:57:57.507Z,2.35
2023-01-27T19:00:34.148Z,3.20
2023-01-27T19:03:01.855Z,4.45
2023-01-27T19:05:35.155Z,1.88
2023-01-27T19:08:03.198Z,2.72
2023-01-27T19:10:33.173Z,1.83
2023-01-27T19:13:02.361Z,5.18
2023-01-27T19:15:33.593Z,3.55
2023-01-27T19:18:07.135Z,3.20
2023-01-27T19:20:34.680Z,2.55
2023-01-27T19:23:02.033Z,1.77
2023-01-27T19:25:30.449Z,2.45
2023-01-27T19:28:03.592Z,1.58
2023-01-27T19:30:33.859Z,1.77
2023-01-27T19:33:01.663Z,1.92
2023-01-27T19:35:31.537Z,2.88
2023-01-27T19:38:02.969Z,2.90
2023-01-27T19:40:31.928Z,3.00
2023-01-27T19:42:59.013Z,2.03
2023-01-27T19:45:27.604Z,1.40
2023-01-27T19:47:54.693Z,1.80
2023-01-27T19:50:25.445Z,1.70
2023-01-27T19:52:53.835Z,1.45
2023-01-27T19:55:21.244Z,1.33
2023-01-27T19:57:49.302Z,1.55
2023-01-27T20:00:25.311Z,1.50
2023-01-27T20:02:52.896Z,2.40
2023-01-27T20:05:20.533Z,1.52
2023-01-27T20:07:48.001Z,1.95
2023-01-27T20:10:18.302Z,7.32
2023-01-27T20:12:53.601Z,4.75
2023-01-27T20:15:21.072Z,6.65
2023-01-27T20:17:48.497Z,5.40
2023-01-27T20:20:15.868Z,2.97
2023-01-27T20:22:43.125Z,2.72
2023-01-27T20:25:15.855Z,4.38
2023-01-27T20:27:43.813Z,4.07
2023-01-27T20:30:24.949Z,3.65
2023-01-27T20:32:54.983Z,3.22
2023-01-27T20:35:23.039Z,2.33
2023-01-27T20:37:51.614Z,2.42
2023-01-27T20:40:24.744Z,2.60
2023-01-27T20:42:52.591Z,1.95
2023-01-27T20:45:20.488Z,2.10
2023-01-27T20:47:53.360Z,3.05
2023-01-27T20:50:22.949Z,4.93
2023-01-27T20:52:51.361Z,2.40
2023-01-27T20:55:19.256Z,2.42
2023-01-27T20:57:47.238Z,2.35
2023-01-27T21:00:21.633Z,1.42
2023-01-27T21:02:49.099Z,1.90
2023-01-27T21:05:16.557Z,1.77
2023-01-27T21:07:43.859Z,2.13
2023-01-27T21:10:11.500Z,1.77
2023-01-27T21:12:38.753Z,7.00
2023-01-27T21:15:06.247Z,1.60
2023-01-27T21:17:33.567Z,1.50
2023-01-27T21:20:00.551Z,1.65
2023-01-27T21:22:27.550Z,1.48
2023-01-27T21:24:54.582Z,2.97
2023-01-27T21:27:21.629Z,1.35
2023-01-27T21:29:48.633Z,2.05
2023-01-27T21:32:15.653Z,2.00
2023-01-27T21:34:42.687Z,2.70
2023-01-27T21:37:09.708Z,5.05
2023-01-27T21:39:36.746Z,7.07
2023-01-27T21:42:03.893Z,2.28
2023-01-27T21:44:30.902Z,4.25
2023-01-27T21:46:57.963Z,1.60
2023-01-27T21:49:25.000Z,4.60
2023-01-27T21:51:51.997Z,2.92
2023-01-27T21:54:19.032Z,2.35
2023-01-27T21:56:46.060Z,3.35
2023-01-27T21:59:13.107Z,3.65
2023-01-27T22:01:40.148Z,0.93
2023-01-27T22:04:07.305Z,3.25
2023-01-27T22:06:34.348Z,2.08
2023-01-27T22:09:01.417Z,2.30
2023-01-27T22:11:28.473Z,1.75
2023-01-27T22:13:55.538Z,2.30
2023-01-27T22:16:22.534Z,2.47
2023-01-27T22:18:49.572Z,3.72
2023-01-27T22:21:16.602Z,4.05
2023-01-27T22:23:43.679Z,3.15
2023-01-27T22:26:10.689Z,3.10
2023-01-27T22:28:37.708Z,3.63
2023-01-27T22:31:04.753Z,3.25
2023-01-27T22:33:31.855Z,4.45
2023-01-27T22:36:03.947Z,3.65
2023-01-27T22:38:31.071Z,3.00
2023-01-27T22:40:58.941Z,2.35
2023-01-27T22:43:26.087Z,2.72
2023-01-27T22:45:53.139Z,3.58
2023-01-27T22:48:20.195Z,6.03
2023-01-27T22:50:47.252Z,2.90
2023-01-27T22:53:14.535Z,3.85
2023-01-27T22:55:41.655Z,3.42
2023-01-27T22:58:09.105Z,4.15
2023-01-27T23:00:36.120Z,2.22
2023-01-27T23:03:03.745Z,2.65
2023-01-27T23:08:06.761Z,2.63
2023-01-27T23:10:34.961Z,2.13
2023-01-27T23:13:02.383Z,2.22
2023-01-27T23:15:30.411Z,5.25
2023-01-27T23:17:58.430Z,2.45
2023-01-27T23:20:26.623Z,3.72
2023-01-27T23:22:53.831Z,2.40
2023-01-27T23:25:21.073Z,3.35
2023-01-27T23:27:48.757Z,4.45
2023-01-27T23:30:16.124Z,3.63
2023-01-27T23:32:43.587Z,3.38
2023-01-27T23:35:10.699Z,3.30
2023-01-27T23:37:38.019Z,1.98
2023-01-27T23:40:06.361Z,1.27
2023-01-27T23:42:35.985Z,1.85
2023-01-27T23:45:04.139Z,1.55
2023-01-27T23:47:31.676Z,0.60
2023-01-27T23:49:58.849Z,3.15
2023-01-27T23:52:27.511Z,3.05
2023-01-27T23:54:55.469Z,2.33
2023-01-27T23:57:25.717Z,1.30
2023-01-27T23:59:52.883Z,2.20
